Time;durP1;ratioP1;P1;durP2;ratioP2;P2;SDS_P1;SDS_P2;PMS_P1;PMS_P2;Temp;Humidity;BMP_temperature;BMP_pressure;BME280_temperature;BME280_humidity;BME280_pressure;Samples;Min_cycle;Max_cycle;Signal;HPM_P1;HPM_P2
2023/12/17 00:00:54;;;;;;;41.13;25.58;;;;;;;;;;5588624;31;34713;-75
2023/12/17 00:03:57;;;;;;;42.80;27.00;;;;;;;;;;5588812;31;35310;-76
2023/12/17 00:06:59;;;;;;;36.63;25.83;;;;;;;;;;5588303;31;34463;-76
2023/12/17 00:10:02;;;;;;;38.03;25.42;;;;;;;;;;5588018;31;34718;-76
2023/12/17 00:13:05;;;;;;;38.85;25.48;;;;;;;;;;5587588;31;34698;-76
2023/12/17 00:16:08;;;;;;;40.58;25.67;;;;;;;;;;5588358;31;34791;-75
2023/12/17 00:19:10;;;;;;;42.08;26.27;;;;;;;;;;5588223;31;35417;-76
2023/12/17 00:22:13;;;;;;;44.22;26.25;;;;;;;;;;5588185;31;34540;-76
2023/12/17 00:25:16;;;;;;;37.53;25.37;;;;;;;;;;5588018;31;35534;-76
2023/12/17 00:28:18;;;;;;;42.55;25.70;;;;;;;;;;5588506;31;35427;-76
2023/12/17 00:31:21;;;;;;;38.25;24.80;;;;;;;;;;5588064;31;34620;-75
2023/12/17 00:34:24;;;;;;;40.22;25.48;;;;;;;;;;5587999;31;34667;-74
2023/12/17 00:37:26;;;;;;;41.50;25.98;;;;;;;;;;5587864;31;34740;-74
2023/12/17 00:40:29;;;;;;;44.20;26.30;;;;;;;;;;5587870;31;34612;-74
2023/12/17 00:43:32;;;;;;;38.97;25.58;;;;;;;;;;5587803;31;34570;-75
2023/12/17 00:46:34;;;;;;;40.22;25.48;;;;;;;;;;5587626;31;34580;-77
2023/12/17 00:49:36;;;;;;;39.95;23.70;;;;;;;;;;5587677;31;34630;-75
2023/12/17 00:52:39;;;;;;;44.65;27.10;;;;;;;;;;5587619;31;34752;-75
2023/12/17 00:55:42;;;;;;;41.40;23.58;;;;;;;;;;5587960;31;35305;-76
2023/12/17 00:58:44;;;;;;;40.28;24.73;;;;;;;;;;5587463;31;34834;-75
2023/12/17 01:01:47;;;;;;;39.15;24.10;;;;;;;;;;5587922;31;34683;-75
2023/12/17 01:04:49;;;;;;;41.80;26.45;;;;;;;;;;5588389;31;34756;-76
2023/12/17 01:07:52;;;;;;;43.13;25.75;;;;;;;;;;5590000;31;34680;-75
2023/12/17 01:10:54;;;;;;;35.22;22.52;;;;;;;;;;5590341;31;35387;-74
2023/12/17 01:13:57;;;;;;;40.03;23.85;;;;;;;;;;5590036;31;34750;-76
2023/12/17 01:17:00;;;;;;;38.85;23.60;;;;;;;;;;5590190;31;34686;-75
2023/12/17 01:20:02;;;;;;;33.88;21.00;;;;;;;;;;5589782;31;34855;-76
2023/12/17 01:23:05;;;;;;;34.30;19.30;;;;;;;;;;5589786;31;34725;-76
2023/12/17 01:26:08;;;;;;;30.67;18.17;;;;;;;;;;5589815;31;34698;-76
2023/12/17 01:29:11;;;;;;;32.60;18.05;;;;;;;;;;5590161;31;34944;-76
2023/12/17 01:32:13;;;;;;;27.95;16.42;;;;;;;;;;5589682;31;35454;-75
2023/12/17 01:35:16;;;;;;;29.55;16.92;;;;;;;;;;5589786;31;34625;-76
2023/12/17 01:38:18;;;;;;;26.92;16.15;;;;;;;;;;5589703;31;35242;-76
2023/12/17 01:41:21;;;;;;;26.50;16.35;;;;;;;;;;5589815;31;34626;-77
2023/12/17 01:44:24;;;;;;;26.92;16.02;;;;;;;;;;5589811;31;34739;-76
2023/12/17 01:47:26;;;;;;;31.30;17.23;;;;;;;;;;5589899;31;35271;-76
2023/12/17 01:50:28;;;;;;;27.10;16.08;;;;;;;;;;5589754;31;35430;-75
2023/12/17 01:53:31;;;;;;;27.13;16.08;;;;;;;;;;5589977;31;34457;-76
2023/12/17 01:56:34;;;;;;;28.83;16.00;;;;;;;;;;5589491;31;34531;-76
2023/12/17 01:59:36;;;;;;;26.85;17.42;;;;;;;;;;5589496;31;34685;-75
2023/12/17 02:02:39;;;;;;;24.73;16.52;;;;;;;;;;5589388;31;34695;-76
2023/12/17 02:05:43;;;;;;;28.30;17.35;;;;;;;;;;5589515;31;34642;-76
2023/12/17 02:08:46;;;;;;;29.87;17.45;;;;;;;;;;5589444;31;35470;-76
2023/12/17 02:11:49;;;;;;;26.85;17.98;;;;;;;;;;5589855;31;34671;-76
2023/12/17 02:14:51;;;;;;;31.35;19.05;;;;;;;;;;5589432;31;34583;-76
2023/12/17 02:17:54;;;;;;;27.05;17.80;;;;;;;;;;5588368;31;35318;-76
2023/12/17 02:20:57;;;;;;;29.05;18.73;;;;;;;;;;5589306;31;34733;-76
2023/12/17 02:24:00;;;;;;;31.35;18.05;;;;;;;;;;5589353;31;35344;-76
2023/12/17 02:27:03;;;;;;;25.42;17.95;;;;;;;;;;5589273;31;34624;-76
2023/12/17 02:30:05;;;;;;;24.27;17.50;;;;;;;;;;5589291;31;35198;-76
2023/12/17 02:33:09;;;;;;;26.80;17.48;;;;;;;;;;5589323;31;34746;-75
2023/12/17 02:36:12;;;;;;;27.87;17.45;;;;;;;;;;5589276;31;34736;-75
2023/12/17 02:39:14;;;;;;;30.77;18.62;;;;;;;;;;5589225;31;34712;-76
2023/12/17 02:42:18;;;;;;;28.25;17.20;;;;;;;;;;5589700;31;34616;-75
2023/12/17 02:45:20;;;;;;;29.90;18.25;;;;;;;;;;5589255;31;34662;-76
2023/12/17 02:48:23;;;;;;;25.08;17.92;;;;;;;;;;5589388;31;35295;-75
2023/12/17 02:51:26;;;;;;;28.90;18.48;;;;;;;;;;5589327;31;34471;-76
2023/12/17 02:54:29;;;;;;;26.35;18.30;;;;;;;;;;5589243;31;34432;-76
2023/12/17 02:57:32;;;;;;;27.10;19.35;;;;;;;;;;5589176;31;35261;-75
2023/12/17 03:00:36;;;;;;;25.58;19.05;;;;;;;;;;5588602;31;34776;-76
2023/12/17 03:03:38;;;;;;;26.08;18.23;;;;;;;;;;5589081;31;35298;-76
2023/12/17 03:06:41;;;;;;;28.42;18.85;;;;;;;;;;5589017;31;35229;-76
2023/12/17 03:09:44;;;;;;;27.08;19.50;;;;;;;;;;5589058;31;35421;-75
2023/12/17 03:12:46;;;;;;;29.50;19.35;;;;;;;;;;5589361;31;35382;-76
2023/12/17 03:15:49;;;;;;;31.17;20.73;;;;;;;;;;5589148;31;35299;-76
2023/12/17 03:18:52;;;;;;;29.15;19.67;;;;;;;;;;5589013;31;35378;-76
2023/12/17 03:21:55;;;;;;;27.48;19.20;;;;;;;;;;5588805;31;34630;-76
2023/12/17 03:24:58;;;;;;;28.52;19.70;;;;;;;;;;5588833;31;35079;-75
2023/12/17 03:28:01;;;;;;;30.23;20.58;;;;;;;;;;5588377;31;35422;-75
2023/12/17 03:31:03;;;;;;;32.08;21.35;;;;;;;;;;5588784;31;34614;-76
2023/12/17 03:34:06;;;;;;;32.25;21.20;;;;;;;;;;5587884;31;35239;-75
2023/12/17 03:37:09;;;;;;;27.17;19.42;;;;;;;;;;5588604;31;34680;-75
2023/12/17 03:40:13;;;;;;;29.75;20.70;;;;;;;;;;5588623;31;35382;-75
2023/12/17 03:43:15;;;;;;;29.48;20.85;;;;;;;;;;5588327;31;35329;-76
2023/12/17 03:46:21;;;;;;;29.87;20.80;;;;;;;;;;5589057;31;34493;-75
2023/12/17 03:49:24;;;;;;;32.90;20.70;;;;;;;;;;5587900;31;34610;-76
2023/12/17 03:52:27;;;;;;;31.85;21.42;;;;;;;;;;5588612;31;34706;-76
2023/12/17 03:55:29;;;;;;;31.08;21.73;;;;;;;;;;5588502;31;34595;-75
2023/12/17 03:58:34;;;;;;;34.70;21.15;;;;;;;;;;5588534;31;34704;-75
2023/12/17 04:01:43;;;;;;;32.75;22.02;;;;;;;;;;5587647;31;35411;-75
2023/12/17 04:04:45;;;;;;;32.63;21.83;;;;;;;;;;5588356;31;35388;-75
2023/12/17 04:07:48;;;;;;;33.30;21.92;;;;;;;;;;5588349;31;34586;-75
2023/12/17 04:10:51;;;;;;;33.10;22.85;;;;;;;;;;5588249;31;35409;-75
2023/12/17 04:13:54;;;;;;;33.08;23.27;;;;;;;;;;5588255;31;35393;-76
2023/12/17 04:16:57;;;;;;;35.42;23.98;;;;;;;;;;5583395;31;153641;-76
2023/12/17 04:19:59;;;;;;;34.75;23.90;;;;;;;;;;5588316;31;35355;-76
2023/12/17 04:23:03;;;;;;;37.10;24.67;;;;;;;;;;5588258;31;35376;-76
2023/12/17 04:26:05;;;;;;;36.75;24.40;;;;;;;;;;5588049;31;35213;-77
2023/12/17 04:29:08;;;;;;;32.75;22.85;;;;;;;;;;5588070;31;35339;-74
2023/12/17 04:32:11;;;;;;;33.13;21.90;;;;;;;;;;5587207;31;34958;-75
2023/12/17 04:35:14;;;;;;;26.70;17.45;;;;;;;;;;5588013;31;34629;-75
2023/12/17 04:38:17;;;;;;;21.50;14.87;;;;;;;;;;5588256;31;34707;-76
2023/12/17 04:41:19;;;;;;;21.70;13.73;;;;;;;;;;5586623;31;34593;-75
2023/12/17 04:44:22;;;;;;;20.67;12.68;;;;;;;;;;5588116;31;35207;-75
2023/12/17 04:47:25;;;;;;;22.98;13.20;;;;;;;;;;5587711;31;34705;-75
2023/12/17 04:50:27;;;;;;;19.90;12.05;;;;;;;;;;5587804;31;34651;-75
2023/12/17 04:53:30;;;;;;;17.27;11.70;;;;;;;;;;5587183;31;35497;-75
2023/12/17 04:56:32;;;;;;;17.35;11.30;;;;;;;;;;5587625;31;35378;-76
2023/12/17 04:59:35;;;;;;;18.00;11.70;;;;;;;;;;5587659;31;34854;-76
2023/12/17 05:02:37;;;;;;;18.30;11.12;;;;;;;;;;5587840;31;34491;-75
2023/12/17 05:05:40;;;;;;;17.33;10.90;;;;;;;;;;5586784;31;34664;-75
2023/12/17 05:08:43;;;;;;;17.55;11.32;;;;;;;;;;5587448;31;34833;-74
2023/12/17 05:11:46;;;;;;;17.42;10.75;;;;;;;;;;5587328;31;35308;-75
2023/12/17 05:14:48;;;;;;;17.70;10.40;;;;;;;;;;5586489;31;32673;-74
2023/12/17 05:17:51;;;;;;;19.95;11.30;;;;;;;;;;5587481;31;34766;-75
2023/12/17 05:20:54;;;;;;;18.25;10.65;;;;;;;;;;5587591;31;34724;-76
2023/12/17 05:23:56;;;;;;;17.50;11.32;;;;;;;;;;5587578;31;34495;-76
2023/12/17 05:26:59;;;;;;;18.23;11.07;;;;;;;;;;5587270;31;35467;-76
2023/12/17 05:30:01;;;;;;;19.23;10.60;;;;;;;;;;5587389;31;35333;-76
2023/12/17 05:33:06;;;;;;;17.23;10.45;;;;;;;;;;5587416;31;34534;-75
2023/12/17 05:36:09;;;;;;;15.02;9.50;;;;;;;;;;5587112;31;35259;-76
2023/12/17 05:39:11;;;;;;;14.20;9.57;;;;;;;;;;5586137;31;35359;-75
2023/12/17 05:42:14;;;;;;;14.93;8.65;;;;;;;;;;5586705;31;34522;-75
2023/12/17 05:45:17;;;;;;;13.38;8.57;;;;;;;;;;5587087;31;34757;-75
2023/12/17 05:48:20;;;;;;;14.40;8.07;;;;;;;;;;5586594;31;34577;-74
2023/12/17 05:51:24;;;;;;;15.45;8.82;;;;;;;;;;5587689;31;34796;-75
2023/12/17 05:54:26;;;;;;;16.60;9.15;;;;;;;;;;5589515;31;35341;-75
2023/12/17 05:57:29;;;;;;;13.98;8.95;;;;;;;;;;5589269;31;34611;-75
2023/12/17 06:00:32;;;;;;;14.20;8.88;;;;;;;;;;5589368;31;34561;-75
2023/12/17 06:03:37;;;;;;;12.90;8.68;;;;;;;;;;5589433;31;34696;-75
2023/12/17 06:06:41;;;;;;;17.40;9.60;;;;;;;;;;5589493;31;34531;-75
2023/12/17 06:09:44;;;;;;;13.93;8.90;;;;;;;;;;5589489;31;35369;-76
2023/12/17 06:12:46;;;;;;;12.90;9.18;;;;;;;;;;5589492;31;34673;-76
2023/12/17 06:15:48;;;;;;;13.68;8.88;;;;;;;;;;5589196;31;34719;-75
2023/12/17 06:18:52;;;;;;;16.23;9.00;;;;;;;;;;5589323;31;35448;-74
2023/12/17 06:21:55;;;;;;;16.15;9.40;;;;;;;;;;5588622;31;35180;-76
2023/12/17 06:24:58;;;;;;;14.55;8.88;;;;;;;;;;5589406;31;35387;-75
2023/12/17 06:28:01;;;;;;;14.80;9.25;;;;;;;;;;5589302;31;34899;-75
2023/12/17 06:31:03;;;;;;;14.65;8.63;;;;;;;;;;5589213;31;34579;-75
2023/12/17 06:34:06;;;;;;;14.80;8.65;;;;;;;;;;5589589;31;34561;-75
2023/12/17 06:37:10;;;;;;;15.27;8.98;;;;;;;;;;5588697;31;35340;-75
2023/12/17 06:40:14;;;;;;;11.98;8.57;;;;;;;;;;5589435;31;33192;-75
2023/12/17 06:43:17;;;;;;;14.15;9.13;;;;;;;;;;5589636;31;35305;-76
2023/12/17 06:46:20;;;;;;;15.68;8.95;;;;;;;;;;5588602;31;35339;-76
2023/12/17 06:49:22;;;;;;;16.27;9.27;;;;;;;;;;5589206;31;34694;-76
2023/12/17 06:52:25;;;;;;;15.95;9.18;;;;;;;;;;5589134;31;35230;-76
2023/12/17 06:55:28;;;;;;;15.02;9.40;;;;;;;;;;5588977;31;35422;-76
2023/12/17 06:58:30;;;;;;;17.02;9.77;;;;;;;;;;5589485;31;35265;-76
2023/12/17 07:01:35;;;;;;;15.88;10.07;;;;;;;;;;5588902;31;34648;-76
2023/12/17 07:04:38;;;;;;;18.70;10.70;;;;;;;;;;5588206;31;34604;-76
2023/12/17 07:07:42;;;;;;;14.10;9.32;;;;;;;;;;5589045;31;34714;-75
2023/12/17 07:10:45;;;;;;;17.83;9.50;;;;;;;;;;5588174;31;35261;-75
2023/12/17 07:13:49;;;;;;;16.90;10.05;;;;;;;;;;5588143;31;34563;-75
2023/12/17 07:16:51;;;;;;;17.00;10.23;;;;;;;;;;5588681;31;35387;-75
2023/12/17 07:19:56;;;;;;;17.48;10.35;;;;;;;;;;5588197;31;34595;-75
2023/12/17 07:23:00;;;;;;;16.62;10.40;;;;;;;;;;5588513;31;35566;-76
2023/12/17 07:26:02;;;;;;;14.38;10.38;;;;;;;;;;5588598;31;35244;-76
2023/12/17 07:29:05;;;;;;;19.02;10.10;;;;;;;;;;5588563;31;34693;-76
2023/12/17 07:32:07;;;;;;;15.43;9.57;;;;;;;;;;5588732;31;34596;-75
2023/12/17 07:35:09;;;;;;;17.17;9.70;;;;;;;;;;5588727;31;34717;-75
2023/12/17 07:38:12;;;;;;;14.60;9.63;;;;;;;;;;5587890;31;34414;-76
2023/12/17 07:41:15;;;;;;;14.80;9.82;;;;;;;;;;5588463;31;35351;-75
2023/12/17 07:44:17;;;;;;;13.98;8.95;;;;;;;;;;5588422;31;34680;-76
2023/12/17 07:47:22;;;;;;;15.60;9.10;;;;;;;;;;5588484;31;35302;-75
2023/12/17 07:50:25;;;;;;;14.85;9.27;;;;;;;;;;5588648;31;34712;-76
2023/12/17 07:53:28;;;;;;;14.98;9.23;;;;;;;;;;5588733;31;34694;-75
2023/12/17 07:56:31;;;;;;;15.57;9.75;;;;;;;;;;5588962;31;34535;-76
2023/12/17 07:59:34;;;;;;;14.75;9.68;;;;;;;;;;5588425;31;34771;-75
2023/12/17 08:02:36;;;;;;;15.25;9.35;;;;;;;;;;5588603;31;33674;-76
2023/12/17 08:05:39;;;;;;;14.98;9.27;;;;;;;;;;5588450;31;34555;-76
2023/12/17 08:08:41;;;;;;;16.55;9.10;;;;;;;;;;5588802;31;35600;-77
2023/12/17 08:11:44;;;;;;;14.77;9.25;;;;;;;;;;5588691;31;34673;-75
2023/12/17 08:14:47;;;;;;;12.60;8.88;;;;;;;;;;5588176;31;34570;-75
2023/12/17 08:17:51;;;;;;;15.02;8.75;;;;;;;;;;5588073;31;35378;-75
2023/12/17 08:20:53;;;;;;;14.77;9.00;;;;;;;;;;5588127;31;34608;-75
2023/12/17 08:23:56;;;;;;;15.35;8.07;;;;;;;;;;5588466;31;34845;-75
2023/12/17 08:26:59;;;;;;;15.90;9.73;;;;;;;;;;5588389;31;35267;-76
2023/12/17 08:30:02;;;;;;;14.18;8.88;;;;;;;;;;5587877;31;34637;-75
2023/12/17 08:33:05;;;;;;;16.80;9.48;;;;;;;;;;5587733;31;34683;-75
2023/12/17 08:36:08;;;;;;;17.02;8.98;;;;;;;;;;5587616;31;34827;-75
2023/12/17 08:39:14;;;;;;;14.02;8.65;;;;;;;;;;5587960;31;34665;-75
2023/12/17 08:42:16;;;;;;;16.90;9.15;;;;;;;;;;5587798;31;34533;-75
2023/12/17 08:45:19;;;;;;;13.38;9.18;;;;;;;;;;5587721;31;34602;-75
2023/12/17 08:48:21;;;;;;;15.00;8.40;;;;;;;;;;5587658;31;35353;-76
2023/12/17 08:51:24;;;;;;;14.68;8.52;;;;;;;;;;5587503;31;34658;-75
2023/12/17 08:54:27;;;;;;;13.02;8.23;;;;;;;;;;5587295;31;35373;-76
2023/12/17 08:57:29;;;;;;;13.55;8.38;;;;;;;;;;5587449;31;34355;-75
2023/12/17 09:00:32;;;;;;;13.65;8.43;;;;;;;;;;5586622;31;36172;-74
2023/12/17 09:03:35;;;;;;;14.10;8.43;;;;;;;;;;5587249;31;34705;-76
2023/12/17 09:06:42;;;;;;;15.00;8.70;;;;;;;;;;5587437;31;35441;-75
2023/12/17 09:09:44;;;;;;;12.70;8.05;;;;;;;;;;5587488;31;35233;-74
2023/12/17 09:12:47;;;;;;;12.88;8.30;;;;;;;;;;5587302;31;34752;-75
2023/12/17 09:15:49;;;;;;;12.95;8.13;;;;;;;;;;5587094;31;34806;-75
2023/12/17 09:18:52;;;;;;;11.43;7.72;;;;;;;;;;5587396;31;35409;-74
2023/12/17 09:21:54;;;;;;;15.40;8.02;;;;;;;;;;5586701;31;34596;-74
2023/12/17 09:24:57;;;;;;;12.13;7.97;;;;;;;;;;5586245;31;34547;-76
2023/12/17 09:28:01;;;;;;;13.68;7.70;;;;;;;;;;5588803;31;35445;-75
2023/12/17 09:31:08;;;;;;;14.63;7.93;;;;;;;;;;5589498;31;34829;-75
2023/12/17 09:34:11;;;;;;;13.48;8.05;;;;;;;;;;5589606;31;34795;-75
2023/12/17 09:37:14;;;;;;;15.18;7.93;;;;;;;;;;5589427;31;34660;-74
2023/12/17 09:40:17;;;;;;;13.23;8.35;;;;;;;;;;5589418;31;35407;-76
2023/12/17 09:43:24;;;;;;;12.82;8.65;;;;;;;;;;5589265;31;34966;-75
2023/12/17 09:46:27;;;;;;;11.63;7.70;;;;;;;;;;5589313;31;34696;-75
2023/12/17 09:49:29;;;;;;;12.37;7.45;;;;;;;;;;5589481;31;35347;-75
2023/12/17 09:52:33;;;;;;;11.35;7.25;;;;;;;;;;5589619;31;35416;-75
2023/12/17 09:55:37;;;;;;;9.95;7.15;;;;;;;;;;5589173;31;34691;-75
2023/12/17 09:58:40;;;;;;;10.57;7.20;;;;;;;;;;5589241;31;35396;-75
2023/12/17 10:01:42;;;;;;;12.20;7.62;;;;;;;;;;5589130;31;34877;-75
2023/12/17 10:04:45;;;;;;;11.45;7.60;;;;;;;;;;5589151;31;34715;-75
2023/12/17 10:07:48;;;;;;;12.77;7.55;;;;;;;;;;5589221;31;34827;-75
2023/12/17 10:10:51;;;;;;;10.40;7.10;;;;;;;;;;5589412;31;35037;-74
2023/12/17 10:13:53;;;;;;;10.95;7.37;;;;;;;;;;5589005;31;35154;-75
2023/12/17 10:16:56;;;;;;;11.18;7.65;;;;;;;;;;5589027;31;35172;-75
2023/12/17 10:19:59;;;;;;;11.63;7.22;;;;;;;;;;5589198;31;34688;-74
2023/12/17 10:23:03;;;;;;;11.32;7.30;;;;;;;;;;5588963;31;34963;-74
2023/12/17 10:26:05;;;;;;;12.93;7.35;;;;;;;;;;5588889;31;34715;-74
2023/12/17 10:29:12;;;;;;;13.57;7.55;;;;;;;;;;5589020;31;35299;-74
2023/12/17 10:32:14;;;;;;;11.93;7.60;;;;;;;;;;5588915;31;35356;-76
2023/12/17 10:35:18;;;;;;;11.23;7.80;;;;;;;;;;5588793;31;34786;-74
2023/12/17 10:38:22;;;;;;;12.43;7.85;;;;;;;;;;5587906;31;34576;-75
2023/12/17 10:41:25;;;;;;;12.68;7.97;;;;;;;;;;5588855;31;34586;-74
2023/12/17 10:44:28;;;;;;;11.43;7.40;;;;;;;;;;5588524;31;35427;-74
2023/12/17 10:47:32;;;;;;;10.30;7.20;;;;;;;;;;5588650;31;34409;-75
2023/12/17 10:50:35;;;;;;;11.35;7.60;;;;;;;;;;5588816;31;34738;-74
2023/12/17 10:53:37;;;;;;;12.25;7.72;;;;;;;;;;5588709;31;34782;-75
2023/12/17 10:56:42;;;;;;;11.18;7.60;;;;;;;;;;5588666;31;34491;-75
2023/12/17 10:59:48;;;;;;;11.12;7.60;;;;;;;;;;5588596;31;34002;-74
2023/12/17 11:02:52;;;;;;;13.85;7.47;;;;;;;;;;5588921;31;34995;-75
2023/12/17 11:05:56;;;;;;;11.60;7.87;;;;;;;;;;5588967;31;35464;-75
2023/12/17 11:08:59;;;;;;;12.20;8.15;;;;;;;;;;5589161;31;35401;-75
2023/12/17 11:12:04;;;;;;;12.10;8.32;;;;;;;;;;5588991;31;35258;-75
2023/12/17 11:15:07;;;;;;;12.27;8.13;;;;;;;;;;5589207;31;34693;-74
2023/12/17 11:18:10;;;;;;;10.90;7.72;;;;;;;;;;5589134;31;34810;-75
2023/12/17 11:21:13;;;;;;;12.00;7.85;;;;;;;;;;5589053;31;35371;-75
2023/12/17 11:24:18;;;;;;;11.02;8.00;;;;;;;;;;5588558;31;35230;-74
2023/12/17 11:27:22;;;;;;;11.30;7.62;;;;;;;;;;5588366;31;34655;-74
2023/12/17 11:30:29;;;;;;;11.57;7.37;;;;;;;;;;5588789;31;34596;-74
2023/12/17 11:33:32;;;;;;;11.88;8.02;;;;;;;;;;5588691;31;35313;-74
2023/12/17 11:36:36;;;;;;;10.73;7.60;;;;;;;;;;5588486;31;35426;-74
2023/12/17 11:39:39;;;;;;;9.60;7.15;;;;;;;;;;5588677;31;34695;-74
2023/12/17 11:42:54;;;;;;;10.25;7.25;;;;;;;;;;5587669;31;34769;-76
2023/12/17 11:45:56;;;;;;;12.43;7.95;;;;;;;;;;5588421;31;34525;-73
2023/12/17 11:48:59;;;;;;;10.70;7.50;;;;;;;;;;5588139;31;34868;-73
2023/12/17 11:52:09;;;;;;;12.55;7.50;;;;;;;;;;5588639;31;35454;-75
2023/12/17 11:55:12;;;;;;;12.20;7.68;;;;;;;;;;5588669;31;35342;-74
2023/12/17 11:58:21;;;;;;;10.38;7.00;;;;;;;;;;5588217;31;35435;-75
2023/12/17 12:01:26;;;;;;;10.45;6.87;;;;;;;;;;5587901;31;34573;-74
2023/12/17 12:04:42;;;;;;;7.45;4.40;;;;;;;;;;5588409;31;34588;-74
2023/12/17 12:07:44;;;;;;;7.95;4.72;;;;;;;;;;5588338;31;34495;-74
2023/12/17 12:10:48;;;;;;;8.05;4.43;;;;;;;;;;5587539;31;34695;-74
2023/12/17 12:13:51;;;;;;;8.63;4.12;;;;;;;;;;5588582;31;34711;-75
2023/12/17 12:16:55;;;;;;;7.45;4.12;;;;;;;;;;5587996;31;34646;-74
2023/12/17 12:19:58;;;;;;;6.72;4.00;;;;;;;;;;5588040;31;34577;-75
2023/12/17 12:23:07;;;;;;;7.95;4.15;;;;;;;;;;5587641;31;34735;-75
2023/12/17 12:26:10;;;;;;;6.82;4.00;;;;;;;;;;5587762;31;35367;-75
2023/12/17 12:29:12;;;;;;;6.37;3.47;;;;;;;;;;5587819;31;34652;-74
2023/12/17 12:32:32;;;;;;;6.70;3.87;;;;;;;;;;5587983;31;34763;-75
2023/12/17 12:35:35;;;;;;;7.57;3.47;;;;;;;;;;5587732;31;34666;-75
2023/12/17 12:38:37;;;;;;;8.77;3.78;;;;;;;;;;5587903;31;35380;-75
2023/12/17 12:41:47;;;;;;;9.85;3.92;;;;;;;;;;5587952;31;35377;-75
2023/12/17 12:44:49;;;;;;;6.82;3.87;;;;;;;;;;5587556;31;34620;-75
2023/12/17 12:47:53;;;;;;;7.25;4.40;;;;;;;;;;5587404;31;34671;-74
2023/12/17 12:50:56;;;;;;;8.88;5.07;;;;;;;;;;5587474;31;34682;-74
2023/12/17 12:53:59;;;;;;;8.73;5.18;;;;;;;;;;5587029;31;35450;-75
2023/12/17 12:57:01;;;;;;;8.40;4.90;;;;;;;;;;5587649;31;34732;-74
2023/12/17 13:00:04;;;;;;;9.73;5.30;;;;;;;;;;5587751;31;34755;-75
2023/12/17 13:03:08;;;;;;;10.27;5.30;;;;;;;;;;5588902;31;34524;-75
2023/12/17 13:06:12;;;;;;;7.07;4.32;;;;;;;;;;5589753;31;34900;-74
2023/12/17 13:09:14;;;;;;;8.93;4.65;;;;;;;;;;5589991;31;35352;-74
2023/12/17 13:12:21;;;;;;;12.82;5.18;;;;;;;;;;5589886;31;34669;-75
2023/12/17 13:15:28;;;;;;;9.40;5.18;;;;;;;;;;5589744;31;34951;-75
2023/12/17 13:18:34;;;;;;;9.25;6.05;;;;;;;;;;5589874;31;34611;-74
2023/12/17 13:21:36;;;;;;;10.10;5.85;;;;;;;;;;5589675;31;34750;-74
2023/12/17 13:24:39;;;;;;;10.55;6.40;;;;;;;;;;5589399;31;35430;-74
2023/12/17 13:27:42;;;;;;;11.57;6.45;;;;;;;;;;5589434;31;34882;-74
2023/12/17 13:30:45;;;;;;;11.18;6.37;;;;;;;;;;5589838;31;34568;-74
2023/12/17 13:33:48;;;;;;;8.57;5.62;;;;;;;;;;5588783;31;34643;-75
2023/12/17 13:36:51;;;;;;;12.05;5.95;;;;;;;;;;5589701;31;34649;-74
2023/12/17 13:39:53;;;;;;;10.02;6.18;;;;;;;;;;5589671;31;34500;-75
2023/12/17 13:42:58;;;;;;;11.38;5.50;;;;;;;;;;5589554;31;34639;-74
2023/12/17 13:46:01;;;;;;;12.37;5.55;;;;;;;;;;5589397;31;34890;-75
2023/12/17 13:49:03;;;;;;;10.95;5.40;;;;;;;;;;5589660;31;34626;-74
2023/12/17 13:52:06;;;;;;;9.27;4.32;;;;;;;;;;5589015;31;34727;-75
2023/12/17 13:55:10;;;;;;;7.15;4.25;;;;;;;;;;5588774;31;34641;-75
2023/12/17 13:58:14;;;;;;;9.30;4.22;;;;;;;;;;5589727;31;35345;-74
2023/12/17 14:01:21;;;;;;;11.27;4.80;;;;;;;;;;5589280;31;34794;-74
2023/12/17 14:04:26;;;;;;;7.15;4.20;;;;;;;;;;5589227;31;34797;-75
2023/12/17 14:07:29;;;;;;;9.73;4.90;;;;;;;;;;5589322;31;34578;-74
2023/12/17 14:10:33;;;;;;;7.25;4.15;;;;;;;;;;5589278;31;34555;-74
2023/12/17 14:13:40;;;;;;;6.80;4.37;;;;;;;;;;5589126;31;34867;-74
2023/12/17 14:16:44;;;;;;;7.75;4.07;;;;;;;;;;5588764;31;35348;-74
2023/12/17 14:19:48;;;;;;;7.95;4.12;;;;;;;;;;5589025;31;34627;-74
2023/12/17 14:22:51;;;;;;;8.73;3.97;;;;;;;;;;5589283;31;34792;-74
2023/12/17 14:25:53;;;;;;;8.88;4.32;;;;;;;;;;5589222;31;35281;-74
2023/12/17 14:28:56;;;;;;;8.30;3.72;;;;;;;;;;5589250;31;34646;-74
2023/12/17 14:32:02;;;;;;;8.48;4.22;;;;;;;;;;5589248;31;34693;-74
2023/12/17 14:35:05;;;;;;;8.75;4.05;;;;;;;;;;5589215;31;35231;-74
2023/12/17 14:38:08;;;;;;;8.07;3.85;;;;;;;;;;5589180;31;34609;-74
2023/12/17 14:41:12;;;;;;;7.37;4.00;;;;;;;;;;5589105;31;35422;-74
2023/12/17 14:44:15;;;;;;;6.80;3.78;;;;;;;;;;5589130;31;34541;-74
2023/12/17 14:47:18;;;;;;;8.63;4.05;;;;;;;;;;5589073;31;35476;-74
2023/12/17 14:50:20;;;;;;;8.60;4.20;;;;;;;;;;5588801;31;35444;-75
2023/12/17 14:53:23;;;;;;;7.55;4.50;;;;;;;;;;5589270;31;35385;-74
2023/12/17 14:56:25;;;;;;;9.27;4.60;;;;;;;;;;5588740;31;35283;-74
2023/12/17 14:59:36;;;;;;;11.18;4.55;;;;;;;;;;5588951;31;34452;-74
2023/12/17 15:02:38;;;;;;;;;;;;;;;;;;5589228;31;34792;-74
2023/12/17 15:05:42;;;;;;;8.73;3.90;;;;;;;;;;5588982;31;35569;-73
2023/12/17 15:08:46;;;;;;;8.50;4.20;;;;;;;;;;5588851;31;34879;-74
2023/12/17 15:11:48;;;;;;;13.35;4.62;;;;;;;;;;5588460;31;34760;-74
2023/12/17 15:14:52;;;;;;;8.88;4.12;;;;;;;;;;5588365;31;34602;-73
2023/12/17 15:18:00;;;;;;;8.57;4.25;;;;;;;;;;5588524;31;35361;-74
2023/12/17 15:21:03;;;;;;;10.75;4.45;;;;;;;;;;5587934;31;34579;-73
2023/12/17 15:24:06;;;;;;;8.63;4.53;;;;;;;;;;5587545;31;34214;-74
2023/12/17 15:27:09;;;;;;;8.82;4.57;;;;;;;;;;5588464;31;34714;-73
2023/12/17 15:30:14;;;;;;;8.10;4.32;;;;;;;;;;5588568;31;35384;-73
2023/12/17 15:33:17;;;;;;;9.73;4.60;;;;;;;;;;5588260;31;34787;-73
2023/12/17 15:36:20;;;;;;;10.85;4.78;;;;;;;;;;5588399;31;35399;-74
2023/12/17 15:39:23;;;;;;;8.45;4.80;;;;;;;;;;5587644;31;34595;-73
2023/12/17 15:42:26;;;;;;;9.55;4.45;;;;;;;;;;5588467;31;34637;-73
2023/12/17 15:45:30;;;;;;;9.40;4.43;;;;;;;;;;5588534;31;34649;-73
2023/12/17 15:48:35;;;;;;;11.00;4.93;;;;;;;;;;5587709;31;35377;-73
2023/12/17 15:51:38;;;;;;;11.32;4.80;;;;;;;;;;5588071;31;34420;-73
2023/12/17 15:54:41;;;;;;;10.98;5.05;;;;;;;;;;5588325;31;34470;-73
2023/12/17 15:57:45;;;;;;;11.57;5.43;;;;;;;;;;5588233;31;34751;-73
2023/12/17 16:00:51;;;;;;;13.77;5.62;;;;;;;;;;5588370;31;35367;-73
2023/12/17 16:03:56;;;;;;;11.30;5.53;;;;;;;;;;5588059;31;35385;-73
2023/12/17 16:06:59;;;;;;;13.62;5.65;;;;;;;;;;5587560;31;34571;-75
2023/12/17 16:10:02;;;;;;;15.77;6.12;;;;;;;;;;5588118;31;35310;-73
2023/12/17 16:13:05;;;;;;;9.80;5.60;;;;;;;;;;5587828;31;35416;-73
2023/12/17 16:16:09;;;;;;;14.38;6.07;;;;;;;;;;5587727;31;34748;-73
2023/12/17 16:19:11;;;;;;;14.73;6.97;;;;;;;;;;5588253;31;34564;-74
2023/12/17 16:22:14;;;;;;;14.05;7.65;;;;;;;;;;5587982;31;35353;-73
2023/12/17 16:25:17;;;;;;;16.50;7.78;;;;;;;;;;5588048;31;35133;-74
2023/12/17 16:28:20;;;;;;;13.07;7.50;;;;;;;;;;5587306;31;34879;-73
2023/12/17 16:31:24;;;;;;;12.73;6.60;;;;;;;;;;5587921;31;34804;-73
2023/12/17 16:34:27;;;;;;;15.00;6.65;;;;;;;;;;5587578;31;34738;-73
2023/12/17 16:37:29;;;;;;;15.65;7.32;;;;;;;;;;5586880;31;35289;-73
2023/12/17 16:40:32;;;;;;;10.25;5.75;;;;;;;;;;5587109;31;34931;-73
2023/12/17 16:43:35;;;;;;;14.95;6.90;;;;;;;;;;5587471;31;34652;-73
2023/12/17 16:46:38;;;;;;;14.63;7.15;;;;;;;;;;5588179;31;34806;-73
2023/12/17 16:49:43;;;;;;;13.77;7.82;;;;;;;;;;5587173;31;35357;-73
2023/12/17 16:52:46;;;;;;;14.95;7.25;;;;;;;;;;5587976;31;34925;-73
2023/12/17 16:55:49;;;;;;;14.25;7.37;;;;;;;;;;5587795;31;34656;-73
2023/12/17 16:58:51;;;;;;;13.30;7.78;;;;;;;;;;5587553;31;34700;-73
2023/12/17 17:01:57;;;;;;;15.90;8.70;;;;;;;;;;5587533;31;34640;-73
2023/12/17 17:05:00;;;;;;;16.73;8.43;;;;;;;;;;5587508;31;34535;-73
2023/12/17 17:08:03;;;;;;;16.17;8.80;;;;;;;;;;5587457;31;34907;-73
2023/12/17 17:11:07;;;;;;;19.08;9.30;;;;;;;;;;5587257;31;34703;-74
2023/12/17 17:14:16;;;;;;;17.20;9.23;;;;;;;;;;5587404;31;34765;-74
2023/12/17 17:17:18;;;;;;;18.00;10.02;;;;;;;;;;5587262;31;35268;-74
2023/12/17 17:20:21;;;;;;;16.55;10.40;;;;;;;;;;5587185;31;34647;-74
2023/12/17 17:23:26;;;;;;;14.45;9.85;;;;;;;;;;5587208;31;34654;-74
2023/12/17 17:26:30;;;;;;;17.37;9.88;;;;;;;;;;5587049;31;34756;-74
2023/12/17 17:29:32;;;;;;;16.20;10.48;;;;;;;;;;5586981;31;35379;-74
2023/12/17 17:32:36;;;;;;;19.30;10.80;;;;;;;;;;5586068;31;35439;-74
2023/12/17 17:35:39;;;;;;;17.08;9.38;;;;;;;;;;5587065;31;34913;-74
2023/12/17 17:38:42;;;;;;;17.83;9.80;;;;;;;;;;5587218;31;33014;-73
2023/12/17 17:41:48;;;;;;;18.70;10.60;;;;;;;;;;5586304;31;34420;-73
2023/12/17 17:44:50;;;;;;;17.50;10.52;;;;;;;;;;5586880;31;34691;-74
2023/12/17 17:47:53;;;;;;;24.48;11.73;;;;;;;;;;5587650;31;34852;-74
2023/12/17 17:50:59;;;;;;;25.65;11.90;;;;;;;;;;5576003;31;34692;-74
2023/12/17 17:54:02;;;;;;;23.23;11.60;;;;;;;;;;5589750;31;34856;-74
2023/12/17 17:57:06;;;;;;;22.77;11.40;;;;;;;;;;5589528;31;35266;-75
2023/12/17 18:00:11;;;;;;;19.55;10.88;;;;;;;;;;5589722;31;34531;-74